sensor_id;sensor_type;location;lat;lon;timestamp;temperature;humidity
22065;DHT22;11197;53.110;8.468;2022-10-19T00:00:26;12.10;99.90
22065;DHT22;11197;53.110;8.468;2022-10-19T00:02:52;12.10;99.90
22065;DHT22;11197;53.110;8.468;2022-10-19T00:05:18;12.10;99.90
22065;DHT22;11197;53.110;8.468;2022-10-19T00:07:46;12.10;99.90
22065;DHT22;11197;53.110;8.468;2022-10-19T00:10:12;12.10;99.90
22065;DHT22;11197;53.110;8.468;2022-10-19T00:12:41;12.10;99.90
22065;DHT22;11197;53.110;8.468;2022-10-19T00:15:07;12.10;99.90
22065;DHT22;11197;53.110;8.468;2022-10-19T00:17:33;12.10;99.90
22065;DHT22;11197;53.110;8.468;2022-10-19T00:20:00;12.10;99.90
22065;DHT22;11197;53.110;8.468;2022-10-19T00:22:25;12.20;99.90
22065;DHT22;11197;53.110;8.468;2022-10-19T00:24:51;12.20;99.90
22065;DHT22;11197;53.110;8.468;2022-10-19T00:27:17;12.20;99.90
22065;DHT22;11197;53.110;8.468;2022-10-19T00:29:44;12.20;99.90
22065;DHT22;11197;53.110;8.468;2022-10-19T00:32:10;12.20;99.90
22065;DHT22;11197;53.110;8.468;2022-10-19T00:34:36;12.20;99.90
22065;DHT22;11197;53.110;8.468;2022-10-19T00:37:02;12.20;99.90
22065;DHT22;11197;53.110;8.468;2022-10-19T00:39:28;12.20;99.90
22065;DHT22;11197;53.110;8.468;2022-10-19T00:41:53;12.20;99.90
22065;DHT22;11197;53.110;8.468;2022-10-19T00:46:46;12.20;99.90
22065;DHT22;11197;53.110;8.468;2022-10-19T00:49:35;12.20;99.90
22065;DHT22;11197;53.110;8.468;2022-10-19T00:52:05;12.20;99.90
22065;DHT22;11197;53.110;8.468;2022-10-19T00:54:33;12.20;99.90
22065;DHT22;11197;53.110;8.468;2022-10-19T00:56:59;12.20;99.90
22065;DHT22;11197;53.110;8.468;2022-10-19T00:59:27;12.20;99.90
22065;DHT22;11197;53.110;8.468;2022-10-19T01:01:56;12.20;99.90
22065;DHT22;11197;53.110;8.468;2022-10-19T01:04:26;12.20;99.90
22065;DHT22;11197;53.110;8.468;2022-10-19T01:06:54;12.20;99.90
22065;DHT22;11197;53.110;8.468;2022-10-19T01:09:21;12.20;99.90
22065;DHT22;11197;53.110;8.468;2022-10-19T01:11:58;12.20;99.90
22065;DHT22;11197;53.110;8.468;2022-10-19T01:17:23;12.20;99.90
22065;DHT22;11197;53.110;8.468;2022-10-19T01:28:28;12.20;99.90
22065;DHT22;11197;53.110;8.468;2022-10-19T01:36:21;12.20;99.90
22065;DHT22;11197;53.110;8.468;2022-10-19T01:39:23;12.20;99.90
22065;DHT22;11197;53.110;8.468;2022-10-19T01:46:55;12.20;99.90
22065;DHT22;11197;53.110;8.468;2022-10-19T01:49:31;12.20;99.90
22065;DHT22;11197;53.110;8.468;2022-10-19T01:52:02;12.20;99.90
22065;DHT22;11197;53.110;8.468;2022-10-19T01:54:36;12.20;99.90
22065;DHT22;11197;53.110;8.468;2022-10-19T01:57:05;12.20;99.90
22065;DHT22;11197;53.110;8.468;2022-10-19T01:59:32;12.20;99.90
22065;DHT22;11197;53.110;8.468;2022-10-19T02:01:58;12.20;99.90
22065;DHT22;11197;53.110;8.468;2022-10-19T02:04:25;12.20;99.90
22065;DHT22;11197;53.110;8.468;2022-10-19T02:06:52;12.20;99.90
22065;DHT22;11197;53.110;8.468;2022-10-19T02:09:18;12.20;99.90
22065;DHT22;11197;53.110;8.468;2022-10-19T02:11:46;12.20;99.90
22065;DHT22;11197;53.110;8.468;2022-10-19T02:14:15;12.20;99.90
22065;DHT22;11197;53.110;8.468;2022-10-19T02:16:50;12.20;99.90
22065;DHT22;11197;53.110;8.468;2022-10-19T02:19:21;12.20;99.90
22065;DHT22;11197;53.110;8.468;2022-10-19T02:21:47;12.20;99.90
22065;DHT22;11197;53.110;8.468;2022-10-19T02:24:17;12.20;99.90
22065;DHT22;11197;53.110;8.468;2022-10-19T02:26:43;12.10;99.90
22065;DHT22;11197;53.110;8.468;2022-10-19T02:29:10;12.20;99.90
22065;DHT22;11197;53.110;8.468;2022-10-19T02:31:38;12.20;99.90
22065;DHT22;11197;53.110;8.468;2022-10-19T02:34:04;12.20;99.90
22065;DHT22;11197;53.110;8.468;2022-10-19T02:36:30;12.20;99.90
22065;DHT22;11197;53.110;8.468;2022-10-19T02:38:56;12.20;99.90
22065;DHT22;11197;53.110;8.468;2022-10-19T02:41:38;12.20;99.90
22065;DHT22;11197;53.110;8.468;2022-10-19T02:44:22;12.10;99.90
22065;DHT22;11197;53.110;8.468;2022-10-19T02:46:57;12.20;99.90
22065;DHT22;11197;53.110;8.468;2022-10-19T02:49:26;12.20;99.90
22065;DHT22;11197;53.110;8.468;2022-10-19T02:52:04;12.10;99.90
22065;DHT22;11197;53.110;8.468;2022-10-19T02:54:31;12.10;99.90
22065;DHT22;11197;53.110;8.468;2022-10-19T02:56:57;12.10;99.90
22065;DHT22;11197;53.110;8.468;2022-10-19T02:59:24;12.10;99.90
22065;DHT22;11197;53.110;8.468;2022-10-19T03:01:50;12.20;99.90
22065;DHT22;11197;53.110;8.468;2022-10-19T03:04:16;12.10;99.90
22065;DHT22;11197;53.110;8.468;2022-10-19T03:06:42;12.20;99.90
22065;DHT22;11197;53.110;8.468;2022-10-19T03:09:08;12.20;99.90
22065;DHT22;11197;53.110;8.468;2022-10-19T03:11:34;12.10;99.90
22065;DHT22;11197;53.110;8.468;2022-10-19T03:14:00;12.20;99.90
22065;DHT22;11197;53.110;8.468;2022-10-19T03:16:26;12.20;99.90
22065;DHT22;11197;53.110;8.468;2022-10-19T03:18:52;12.20;99.90
22065;DHT22;11197;53.110;8.468;2022-10-19T03:21:18;12.20;99.90
22065;DHT22;11197;53.110;8.468;2022-10-19T03:23:44;12.20;99.90
22065;DHT22;11197;53.110;8.468;2022-10-19T03:26:13;12.20;99.90
22065;DHT22;11197;53.110;8.468;2022-10-19T03:28:40;12.10;99.90
22065;DHT22;11197;53.110;8.468;2022-10-19T03:31:06;12.10;99.90
22065;DHT22;11197;53.110;8.468;2022-10-19T03:33:32;12.10;99.90
22065;DHT22;11197;53.110;8.468;2022-10-19T03:38:39;12.10;99.90
22065;DHT22;11197;53.110;8.468;2022-10-19T03:41:06;12.10;99.90
22065;DHT22;11197;53.110;8.468;2022-10-19T03:43:32;12.10;99.90
22065;DHT22;11197;53.110;8.468;2022-10-19T03:45:58;12.10;99.90
22065;DHT22;11197;53.110;8.468;2022-10-19T03:48:23;12.10;99.90
22065;DHT22;11197;53.110;8.468;2022-10-19T03:51:07;12.10;99.90
22065;DHT22;11197;53.110;8.468;2022-10-19T03:53:34;12.20;99.90
22065;DHT22;11197;53.110;8.468;2022-10-19T03:56:04;12.10;99.90
22065;DHT22;11197;53.110;8.468;2022-10-19T03:58:32;12.10;99.90
22065;DHT22;11197;53.110;8.468;2022-10-19T04:00:58;12.10;99.90
22065;DHT22;11197;53.110;8.468;2022-10-19T04:03:25;12.10;99.90
22065;DHT22;11197;53.110;8.468;2022-10-19T04:05:51;12.20;99.90
22065;DHT22;11197;53.110;8.468;2022-10-19T04:08:17;12.20;99.90
22065;DHT22;11197;53.110;8.468;2022-10-19T04:10:43;12.10;99.90
22065;DHT22;11197;53.110;8.468;2022-10-19T04:13:09;12.10;99.90
22065;DHT22;11197;53.110;8.468;2022-10-19T04:15:35;12.10;99.90
22065;DHT22;11197;53.110;8.468;2022-10-19T04:18:01;12.10;99.90
22065;DHT22;11197;53.110;8.468;2022-10-19T04:20:27;12.10;99.90
22065;DHT22;11197;53.110;8.468;2022-10-19T04:22:53;12.10;99.90
22065;DHT22;11197;53.110;8.468;2022-10-19T04:25:19;12.10;99.90
22065;DHT22;11197;53.110;8.468;2022-10-19T04:27:45;12.10;99.90
22065;DHT22;11197;53.110;8.468;2022-10-19T04:30:10;12.10;99.90
22065;DHT22;11197;53.110;8.468;2022-10-19T04:32:37;12.10;99.90
22065;DHT22;11197;53.110;8.468;2022-10-19T04:35:03;12.10;99.90
22065;DHT22;11197;53.110;8.468;2022-10-19T04:37:28;12.10;99.90
22065;DHT22;11197;53.110;8.468;2022-10-19T04:39:54;12.10;99.90
22065;DHT22;11197;53.110;8.468;2022-10-19T04:42:20;12.10;99.90
22065;DHT22;11197;53.110;8.468;2022-10-19T04:44:46;12.10;99.90
22065;DHT22;11197;53.110;8.468;2022-10-19T04:47:12;12.10;99.90
22065;DHT22;11197;53.110;8.468;2022-10-19T04:49:38;12.10;99.90
22065;DHT22;11197;53.110;8.468;2022-10-19T04:52:03;12.10;99.90
22065;DHT22;11197;53.110;8.468;2022-10-19T04:54:29;12.10;99.90
22065;DHT22;11197;53.110;8.468;2022-10-19T04:56:55;12.10;99.90
22065;DHT22;11197;53.110;8.468;2022-10-19T04:59:21;12.10;99.90
22065;DHT22;11197;53.110;8.468;2022-10-19T05:01:47;12.10;99.90
22065;DHT22;11197;53.110;8.468;2022-10-19T05:04:13;12.10;99.90
22065;DHT22;11197;53.110;8.468;2022-10-19T05:06:38;12.00;99.90
22065;DHT22;11197;53.110;8.468;2022-10-19T05:09:04;12.00;99.90
22065;DHT22;11197;53.110;8.468;2022-10-19T05:11:30;12.00;99.90
22065;DHT22;11197;53.110;8.468;2022-10-19T05:13:56;12.00;99.90
22065;DHT22;11197;53.110;8.468;2022-10-19T05:16:23;12.00;99.90
22065;DHT22;11197;53.110;8.468;2022-10-19T05:18:51;12.00;99.90
22065;DHT22;11197;53.110;8.468;2022-10-19T05:21:17;12.00;99.90
22065;DHT22;11197;53.110;8.468;2022-10-19T05:23:44;12.00;99.90
22065;DHT22;11197;53.110;8.468;2022-10-19T05:26:15;12.00;99.90
22065;DHT22;11197;53.110;8.468;2022-10-19T05:28:52;12.00;99.90
22065;DHT22;11197;53.110;8.468;2022-10-19T05:31:23;12.00;99.90
22065;DHT22;11197;53.110;8.468;2022-10-19T05:33:50;12.00;99.90
22065;DHT22;11197;53.110;8.468;2022-10-19T05:38:46;12.00;99.90
22065;DHT22;11197;53.110;8.468;2022-10-19T05:41:12;12.00;99.90
22065;DHT22;11197;53.110;8.468;2022-10-19T05:43:40;12.00;99.90
22065;DHT22;11197;53.110;8.468;2022-10-19T05:46:11;12.00;99.90
22065;DHT22;11197;53.110;8.468;2022-10-19T05:48:38;12.00;99.90
22065;DHT22;11197;53.110;8.468;2022-10-19T05:51:05;12.00;99.90
22065;DHT22;11197;53.110;8.468;2022-10-19T05:53:32;12.00;99.90
22065;DHT22;11197;53.110;8.468;2022-10-19T05:55:58;12.00;99.90
22065;DHT22;11197;53.110;8.468;2022-10-19T05:58:24;12.00;99.90
22065;DHT22;11197;53.110;8.468;2022-10-19T06:00:56;12.00;99.90
22065;DHT22;11197;53.110;8.468;2022-10-19T06:03:23;12.00;99.90
22065;DHT22;11197;53.110;8.468;2022-10-19T06:05:49;12.00;99.90
22065;DHT22;11197;53.110;8.468;2022-10-19T06:08:16;12.00;99.90
22065;DHT22;11197;53.110;8.468;2022-10-19T06:10:44;12.00;99.90
22065;DHT22;11197;53.110;8.468;2022-10-19T06:13:10;12.00;99.90
22065;DHT22;11197;53.110;8.468;2022-10-19T06:15:36;12.00;99.90
22065;DHT22;11197;53.110;8.468;2022-10-19T06:18:11;12.00;99.90
22065;DHT22;11197;53.110;8.468;2022-10-19T06:20:39;12.00;99.90
22065;DHT22;11197;53.110;8.468;2022-10-19T06:23:07;12.00;99.90
22065;DHT22;11197;53.110;8.468;2022-10-19T06:25:34;12.00;99.90
22065;DHT22;11197;53.110;8.468;2022-10-19T06:28:01;12.00;99.90
22065;DHT22;11197;53.110;8.468;2022-10-19T06:30:27;12.00;99.90
22065;DHT22;11197;53.110;8.468;2022-10-19T06:32:53;12.00;99.90
22065;DHT22;11197;53.110;8.468;2022-10-19T06:35:19;12.00;99.90
22065;DHT22;11197;53.110;8.468;2022-10-19T06:37:45;12.00;99.90
22065;DHT22;11197;53.110;8.468;2022-10-19T06:40:12;12.00;99.90
22065;DHT22;11197;53.110;8.468;2022-10-19T06:42:38;12.00;99.90
22065;DHT22;11197;53.110;8.468;2022-10-19T06:45:06;12.00;99.90
22065;DHT22;11197;53.110;8.468;2022-10-19T06:47:33;12.00;99.90
22065;DHT22;11197;53.110;8.468;2022-10-19T06:49:59;12.00;99.90
22065;DHT22;11197;53.110;8.468;2022-10-19T06:52:27;12.00;99.90
22065;DHT22;11197;53.110;8.468;2022-10-19T06:54:53;12.00;99.90
22065;DHT22;11197;53.110;8.468;2022-10-19T06:57:19;12.00;99.90
22065;DHT22;11197;53.110;8.468;2022-10-19T06:59:45;12.00;99.90
22065;DHT22;11197;53.110;8.468;2022-10-19T07:02:11;12.00;99.90
22065;DHT22;11197;53.110;8.468;2022-10-19T07:04:37;12.00;99.90
22065;DHT22;11197;53.110;8.468;2022-10-19T07:07:03;12.00;99.90
22065;DHT22;11197;53.110;8.468;2022-10-19T07:09:28;12.00;99.90
22065;DHT22;11197;53.110;8.468;2022-10-19T07:11:54;12.00;99.90
22065;DHT22;11197;53.110;8.468;2022-10-19T07:14:20;12.00;99.90
22065;DHT22;11197;53.110;8.468;2022-10-19T07:16:50;12.00;99.90
22065;DHT22;11197;53.110;8.468;2022-10-19T07:19:17;12.10;99.90
22065;DHT22;11197;53.110;8.468;2022-10-19T07:21:42;12.20;99.90
22065;DHT22;11197;53.110;8.468;2022-10-19T07:24:09;12.20;99.90
22065;DHT22;11197;53.110;8.468;2022-10-19T07:26:35;12.20;99.90
22065;DHT22;11197;53.110;8.468;2022-10-19T07:29:01;12.20;99.90
22065;DHT22;11197;53.110;8.468;2022-10-19T07:31:28;12.20;99.90
22065;DHT22;11197;53.110;8.468;2022-10-19T07:34:00;12.20;99.90
22065;DHT22;11197;53.110;8.468;2022-10-19T07:36:27;12.20;99.90
22065;DHT22;11197;53.110;8.468;2022-10-19T07:38:54;12.10;99.90
22065;DHT22;11197;53.110;8.468;2022-10-19T07:41:21;12.20;99.90
22065;DHT22;11197;53.110;8.468;2022-10-19T07:43:48;12.20;99.90
22065;DHT22;11197;53.110;8.468;2022-10-19T07:46:18;12.20;99.90
22065;DHT22;11197;53.110;8.468;2022-10-19T07:48:45;12.20;99.90
22065;DHT22;11197;53.110;8.468;2022-10-19T07:51:12;12.20;99.90
22065;DHT22;11197;53.110;8.468;2022-10-19T07:53:39;12.20;99.90
22065;DHT22;11197;53.110;8.468;2022-10-19T07:56:08;12.20;99.90
22065;DHT22;11197;53.110;8.468;2022-10-19T07:58:34;12.30;99.90
22065;DHT22;11197;53.110;8.468;2022-10-19T08:01:02;12.30;99.90
22065;DHT22;11197;53.110;8.468;2022-10-19T08:03:29;12.30;99.90
22065;DHT22;11197;53.110;8.468;2022-10-19T08:05:59;12.30;99.90
22065;DHT22;11197;53.110;8.468;2022-10-19T08:08:25;12.30;99.90
22065;DHT22;11197;53.110;8.468;2022-10-19T08:10:51;12.30;99.90
22065;DHT22;11197;53.110;8.468;2022-10-19T08:13:17;12.40;99.90
22065;DHT22;11197;53.110;8.468;2022-10-19T08:15:43;12.40;99.90
22065;DHT22;11197;53.110;8.468;2022-10-19T08:18:09;12.40;99.90
22065;DHT22;11197;53.110;8.468;2022-10-19T08:20:36;12.40;99.90
22065;DHT22;11197;53.110;8.468;2022-10-19T08:23:04;12.40;99.90
22065;DHT22;11197;53.110;8.468;2022-10-19T08:25:30;12.40;99.90
22065;DHT22;11197;53.110;8.468;2022-10-19T08:27:56;12.40;99.90
22065;DHT22;11197;53.110;8.468;2022-10-19T08:30:22;12.50;99.90
22065;DHT22;11197;53.110;8.468;2022-10-19T08:32:48;12.50;99.90
22065;DHT22;11197;53.110;8.468;2022-10-19T08:35:14;12.50;99.90
22065;DHT22;11197;53.110;8.468;2022-10-19T08:37:40;12.50;99.90
22065;DHT22;11197;53.110;8.468;2022-10-19T08:40:17;12.50;99.90
22065;DHT22;11197;53.110;8.468;2022-10-19T08:50:42;12.60;99.90
22065;DHT22;11197;53.110;8.468;2022-10-19T08:53:15;12.60;99.90
22065;DHT22;11197;53.110;8.468;2022-10-19T08:58:31;12.70;99.90
22065;DHT22;11197;53.110;8.468;2022-10-19T09:04:00;12.70;99.90
22065;DHT22;11197;53.110;8.468;2022-10-19T09:09:04;13.10;99.90
22065;DHT22;11197;53.110;8.468;2022-10-19T09:11:34;13.40;99.90
22065;DHT22;11197;53.110;8.468;2022-10-19T09:16:59;13.60;99.90
22065;DHT22;11197;53.110;8.468;2022-10-19T09:19:27;13.50;99.90
22065;DHT22;11197;53.110;8.468;2022-10-19T09:22:14;13.50;99.90
22065;DHT22;11197;53.110;8.468;2022-10-19T09:25:22;13.40;99.90
22065;DHT22;11197;53.110;8.468;2022-10-19T09:28:02;13.40;99.90
22065;DHT22;11197;53.110;8.468;2022-10-19T09:30:30;13.40;99.90
22065;DHT22;11197;53.110;8.468;2022-10-19T09:33:00;13.40;99.90
22065;DHT22;11197;53.110;8.468;2022-10-19T09:35:36;13.50;99.90
22065;DHT22;11197;53.110;8.468;2022-10-19T09:38:05;13.60;99.90
22065;DHT22;11197;53.110;8.468;2022-10-19T09:40:33;13.60;99.90
22065;DHT22;11197;53.110;8.468;2022-10-19T09:42:59;13.70;99.90
22065;DHT22;11197;53.110;8.468;2022-10-19T09:48:43;13.60;99.90
22065;DHT22;11197;53.110;8.468;2022-10-19T09:51:14;13.60;99.90
22065;DHT22;11197;53.110;8.468;2022-10-19T09:53:51;13.60;99.90
22065;DHT22;11197;53.110;8.468;2022-10-19T09:56:25;13.60;99.90
22065;DHT22;11197;53.110;8.468;2022-10-19T09:58:56;13.60;99.90
22065;DHT22;11197;53.110;8.468;2022-10-19T10:01:37;13.60;99.90
22065;DHT22;11197;53.110;8.468;2022-10-19T10:04:17;13.60;99.90
22065;DHT22;11197;53.110;8.468;2022-10-19T10:06:46;13.60;99.90
22065;DHT22;11197;53.110;8.468;2022-10-19T10:09:18;13.60;99.90
22065;DHT22;11197;53.110;8.468;2022-10-19T10:11:48;13.60;99.90
22065;DHT22;11197;53.110;8.468;2022-10-19T10:14:21;13.70;99.90
22065;DHT22;11197;53.110;8.468;2022-10-19T10:16:54;13.70;99.90
22065;DHT22;11197;53.110;8.468;2022-10-19T10:19:20;13.70;99.90
22065;DHT22;11197;53.110;8.468;2022-10-19T10:21:55;13.70;99.90
22065;DHT22;11197;53.110;8.468;2022-10-19T10:24:25;13.70;99.90
22065;DHT22;11197;53.110;8.468;2022-10-19T10:26:57;13.60;99.90
22065;DHT22;11197;53.110;8.468;2022-10-19T10:29:27;13.60;99.90
22065;DHT22;11197;53.110;8.468;2022-10-19T10:32:06;13.70;99.90
22065;DHT22;11197;53.110;8.468;2022-10-19T10:34:41;13.80;99.90
22065;DHT22;11197;53.110;8.468;2022-10-19T10:37:18;13.80;99.90
22065;DHT22;11197;53.110;8.468;2022-10-19T10:39:44;13.90;99.90
22065;DHT22;11197;53.110;8.468;2022-10-19T10:42:18;13.90;99.90
22065;DHT22;11197;53.110;8.468;2022-10-19T10:44:48;13.80;99.90
22065;DHT22;11197;53.110;8.468;2022-10-19T10:47:17;13.90;99.90
22065;DHT22;11197;53.110;8.468;2022-10-19T10:49:53;13.80;99.90
22065;DHT22;11197;53.110;8.468;2022-10-19T10:52:21;13.80;99.90
22065;DHT22;11197;53.110;8.468;2022-10-19T10:55:14;13.80;99.90
22065;DHT22;11197;53.110;8.468;2022-10-19T10:57:45;13.80;99.90
22065;DHT22;11197;53.110;8.468;2022-10-19T11:00:20;13.90;99.90
22065;DHT22;11197;53.110;8.468;2022-10-19T11:08:21;14.00;99.90
22065;DHT22;11197;53.110;8.468;2022-10-19T11:13:29;14.00;99.90
22065;DHT22;11197;53.110;8.468;2022-10-19T11:16:12;14.00;99.90
22065;DHT22;11197;53.110;8.468;2022-10-19T11:37:55;13.90;99.90
22065;DHT22;11197;53.110;8.468;2022-10-19T11:43:15;13.90;99.90
22065;DHT22;11197;53.110;8.468;2022-10-19T11:49:10;13.80;99.90
22065;DHT22;11197;53.110;8.468;2022-10-19T12:10:01;13.90;99.90
22065;DHT22;11197;53.110;8.468;2022-10-19T12:12:34;13.90;99.90
22065;DHT22;11197;53.110;8.468;2022-10-19T12:15:19;13.90;99.90
22065;DHT22;11197;53.110;8.468;2022-10-19T12:18:00;13.90;99.90
22065;DHT22;11197;53.110;8.468;2022-10-19T12:23:19;13.90;99.90
22065;DHT22;11197;53.110;8.468;2022-10-19T12:25:47;13.80;99.90
22065;DHT22;11197;53.110;8.468;2022-10-19T12:28:22;13.80;99.90
22065;DHT22;11197;53.110;8.468;2022-10-19T12:30:50;13.80;99.90
22065;DHT22;11197;53.110;8.468;2022-10-19T12:43:40;13.80;99.90
22065;DHT22;11197;53.110;8.468;2022-10-19T12:51:53;13.80;99.90
22065;DHT22;11197;53.110;8.468;2022-10-19T12:54:24;13.80;99.90
22065;DHT22;11197;53.110;8.468;2022-10-19T12:56:54;13.90;99.90
22065;DHT22;11197;53.110;8.468;2022-10-19T12:59:28;13.90;99.90
22065;DHT22;11197;53.110;8.468;2022-10-19T13:01:56;13.90;99.90
22065;DHT22;11197;53.110;8.468;2022-10-19T13:09:36;14.10;99.90
22065;DHT22;11197;53.110;8.468;2022-10-19T13:22:47;14.10;99.90
22065;DHT22;11197;53.110;8.468;2022-10-19T13:27:48;14.20;99.90
22065;DHT22;11197;53.110;8.468;2022-10-19T13:43:32;14.20;99.90
22065;DHT22;11197;53.110;8.468;2022-10-19T13:58:22;14.40;99.90
22065;DHT22;11197;53.110;8.468;2022-10-19T14:01:07;14.40;99.90
22065;DHT22;11197;53.110;8.468;2022-10-19T14:04:12;14.40;99.90
22065;DHT22;11197;53.110;8.468;2022-10-19T14:12:24;14.40;99.90
22065;DHT22;11197;53.110;8.468;2022-10-19T14:14:50;14.40;99.90
22065;DHT22;11197;53.110;8.468;2022-10-19T14:17:24;14.40;99.90
22065;DHT22;11197;53.110;8.468;2022-10-19T14:19:54;14.50;99.90
22065;DHT22;11197;53.110;8.468;2022-10-19T14:22:32;14.40;99.90
22065;DHT22;11197;53.110;8.468;2022-10-19T14:25:22;14.50;99.90
22065;DHT22;11197;53.110;8.468;2022-10-19T14:27:48;14.50;99.90
22065;DHT22;11197;53.110;8.468;2022-10-19T14:30:28;14.50;99.90
22065;DHT22;11197;53.110;8.468;2022-10-19T14:32:56;14.50;99.90
22065;DHT22;11197;53.110;8.468;2022-10-19T14:35:36;14.50;99.90
22065;DHT22;11197;53.110;8.468;2022-10-19T14:38:07;14.60;99.90
22065;DHT22;11197;53.110;8.468;2022-10-19T14:40:39;14.50;99.90
22065;DHT22;11197;53.110;8.468;2022-10-19T14:43:24;14.50;99.90
22065;DHT22;11197;53.110;8.468;2022-10-19T14:48:43;14.50;99.90
22065;DHT22;11197;53.110;8.468;2022-10-19T14:56:54;14.50;99.90
22065;DHT22;11197;53.110;8.468;2022-10-19T15:02:17;14.40;99.90
22065;DHT22;11197;53.110;8.468;2022-10-19T15:04:45;14.30;99.90
22065;DHT22;11197;53.110;8.468;2022-10-19T15:07:20;14.30;99.90
22065;DHT22;11197;53.110;8.468;2022-10-19T15:09:54;14.30;99.90
22065;DHT22;11197;53.110;8.468;2022-10-19T15:12:25;14.30;99.90
22065;DHT22;11197;53.110;8.468;2022-10-19T15:14:53;14.20;99.90
22065;DHT22;11197;53.110;8.468;2022-10-19T15:17:30;14.20;99.90
22065;DHT22;11197;53.110;8.468;2022-10-19T15:19:57;14.20;99.90
22065;DHT22;11197;53.110;8.468;2022-10-19T15:27:32;14.10;99.90
22065;DHT22;11197;53.110;8.468;2022-10-19T15:30:28;14.10;99.90
22065;DHT22;11197;53.110;8.468;2022-10-19T15:35:31;14.10;99.90
22065;DHT22;11197;53.110;8.468;2022-10-19T15:40:41;14.00;99.90
22065;DHT22;11197;53.110;8.468;2022-10-19T15:43:47;14.00;99.90
22065;DHT22;11197;53.110;8.468;2022-10-19T15:48:47;13.90;99.90
22065;DHT22;11197;53.110;8.468;2022-10-19T15:54:02;13.80;99.90
22065;DHT22;11197;53.110;8.468;2022-10-19T15:56:31;13.80;99.90
22065;DHT22;11197;53.110;8.468;2022-10-19T15:58:59;13.80;99.90
22065;DHT22;11197;53.110;8.468;2022-10-19T16:01:28;13.70;99.90
22065;DHT22;11197;53.110;8.468;2022-10-19T16:03:56;13.70;99.90
22065;DHT22;11197;53.110;8.468;2022-10-19T16:06:28;13.60;99.90
22065;DHT22;11197;53.110;8.468;2022-10-19T16:08:55;13.70;99.90
22065;DHT22;11197;53.110;8.468;2022-10-19T16:11:21;13.60;99.90
22065;DHT22;11197;53.110;8.468;2022-10-19T16:13:48;13.70;99.90
22065;DHT22;11197;53.110;8.468;2022-10-19T16:16:25;13.80;99.90
22065;DHT22;11197;53.110;8.468;2022-10-19T16:18:52;13.80;99.90
22065;DHT22;11197;53.110;8.468;2022-10-19T16:21:20;13.70;99.90
22065;DHT22;11197;53.110;8.468;2022-10-19T16:23:46;13.70;99.90
22065;DHT22;11197;53.110;8.468;2022-10-19T16:26:15;13.60;99.90
22065;DHT22;11197;53.110;8.468;2022-10-19T16:28:42;13.50;99.90
22065;DHT22;11197;53.110;8.468;2022-10-19T16:31:09;13.40;99.90
22065;DHT22;11197;53.110;8.468;2022-10-19T16:33:35;13.40;99.90
22065;DHT22;11197;53.110;8.468;2022-10-19T16:36:05;13.30;99.90
22065;DHT22;11197;53.110;8.468;2022-10-19T16:38:31;13.30;99.90
22065;DHT22;11197;53.110;8.468;2022-10-19T16:41:01;13.30;99.90
22065;DHT22;11197;53.110;8.468;2022-10-19T16:43:27;13.20;99.90
22065;DHT22;11197;53.110;8.468;2022-10-19T16:45:53;13.20;99.90
22065;DHT22;11197;53.110;8.468;2022-10-19T16:48:19;13.20;99.90
22065;DHT22;11197;53.110;8.468;2022-10-19T16:53:33;13.10;99.90
22065;DHT22;11197;53.110;8.468;2022-10-19T16:56:07;13.10;99.90
22065;DHT22;11197;53.110;8.468;2022-10-19T16:58:33;13.10;99.90
22065;DHT22;11197;53.110;8.468;2022-10-19T17:01:08;13.10;99.90
22065;DHT22;11197;53.110;8.468;2022-10-19T17:03:34;13.00;99.90
22065;DHT22;11197;53.110;8.468;2022-10-19T17:06:05;12.90;99.90
22065;DHT22;11197;53.110;8.468;2022-10-19T17:08:31;12.80;99.90
22065;DHT22;11197;53.110;8.468;2022-10-19T17:10:57;12.80;99.90
22065;DHT22;11197;53.110;8.468;2022-10-19T17:13:32;12.70;99.90
22065;DHT22;11197;53.110;8.468;2022-10-19T17:16:03;12.60;99.90
22065;DHT22;11197;53.110;8.468;2022-10-19T17:18:28;12.60;99.90
22065;DHT22;11197;53.110;8.468;2022-10-19T17:21:01;12.50;99.90
22065;DHT22;11197;53.110;8.468;2022-10-19T17:23:26;12.40;99.90
22065;DHT22;11197;53.110;8.468;2022-10-19T17:25:52;12.40;99.90
22065;DHT22;11197;53.110;8.468;2022-10-19T17:28:18;12.30;99.90
22065;DHT22;11197;53.110;8.468;2022-10-19T17:30:44;12.20;99.90
22065;DHT22;11197;53.110;8.468;2022-10-19T17:33:12;12.20;99.90
22065;DHT22;11197;53.110;8.468;2022-10-19T17:35:37;12.10;99.90
22065;DHT22;11197;53.110;8.468;2022-10-19T17:38:03;12.10;99.90
22065;DHT22;11197;53.110;8.468;2022-10-19T17:40:29;12.00;99.90
22065;DHT22;11197;53.110;8.468;2022-10-19T17:42:55;11.90;99.90
22065;DHT22;11197;53.110;8.468;2022-10-19T17:45:21;11.90;99.90
22065;DHT22;11197;53.110;8.468;2022-10-19T17:47:47;11.80;99.90
22065;DHT22;11197;53.110;8.468;2022-10-19T17:50:13;11.80;99.90
22065;DHT22;11197;53.110;8.468;2022-10-19T17:52:38;11.70;99.90
22065;DHT22;11197;53.110;8.468;2022-10-19T17:55:05;11.70;99.90
22065;DHT22;11197;53.110;8.468;2022-10-19T17:57:34;11.60;99.90
22065;DHT22;11197;53.110;8.468;2022-10-19T18:00:00;11.60;99.90
22065;DHT22;11197;53.110;8.468;2022-10-19T18:02:26;11.60;99.90
22065;DHT22;11197;53.110;8.468;2022-10-19T18:04:52;11.60;99.90
22065;DHT22;11197;53.110;8.468;2022-10-19T18:07:20;11.60;99.90
22065;DHT22;11197;53.110;8.468;2022-10-19T18:09:46;11.50;99.90
22065;DHT22;11197;53.110;8.468;2022-10-19T18:12:12;11.50;99.90
22065;DHT22;11197;53.110;8.468;2022-10-19T18:14:39;11.40;99.90
22065;DHT22;11197;53.110;8.468;2022-10-19T18:17:04;11.40;99.90
22065;DHT22;11197;53.110;8.468;2022-10-19T18:19:31;11.30;99.90
22065;DHT22;11197;53.110;8.468;2022-10-19T18:21:56;11.30;99.90
22065;DHT22;11197;53.110;8.468;2022-10-19T18:24:22;11.30;99.90
22065;DHT22;11197;53.110;8.468;2022-10-19T18:26:49;11.20;99.90
22065;DHT22;11197;53.110;8.468;2022-10-19T18:29:18;11.20;99.90
22065;DHT22;11197;53.110;8.468;2022-10-19T18:31:45;11.10;99.90
22065;DHT22;11197;53.110;8.468;2022-10-19T18:34:16;11.10;99.90
22065;DHT22;11197;53.110;8.468;2022-10-19T18:36:43;11.10;99.90
22065;DHT22;11197;53.110;8.468;2022-10-19T18:39:11;11.10;99.90
22065;DHT22;11197;53.110;8.468;2022-10-19T18:41:37;11.00;99.90
22065;DHT22;11197;53.110;8.468;2022-10-19T18:44:05;11.00;99.90
22065;DHT22;11197;53.110;8.468;2022-10-19T18:46:34;10.90;99.90
22065;DHT22;11197;53.110;8.468;2022-10-19T18:49:02;10.90;99.90
22065;DHT22;11197;53.110;8.468;2022-10-19T18:51:29;10.80;99.90
22065;DHT22;11197;53.110;8.468;2022-10-19T18:53:56;10.80;99.90
22065;DHT22;11197;53.110;8.468;2022-10-19T18:56:23;10.80;99.90
22065;DHT22;11197;53.110;8.468;2022-10-19T18:58:49;10.70;99.90
22065;DHT22;11197;53.110;8.468;2022-10-19T19:01:21;10.70;99.90
22065;DHT22;11197;53.110;8.468;2022-10-19T19:03:50;10.60;99.90